Time;durP1;ratioP1;P1;durP2;ratioP2;P2;SDS_P1;SDS_P2;PMS_P1;PMS_P2;Temp;Humidity;BMP_temperature;BMP_pressure;BME280_temperature;BME280_humidity;BME280_pressure;Samples;Min_cycle;Max_cycle;Signal;HPM_P1;HPM_P2
2021/03/06 00:02:18;;;;;;;0.80;0.70;;;;;;;;;;5051982;28;20454;-70
2021/03/06 00:04:44;;;;;;;0.87;0.87;;;;;;;;;;5032805;28;20411;-70
2021/03/06 00:07:10;;;;;;;0.70;0.50;;;;;;;;;;5052468;28;20435;-70
2021/03/06 00:09:36;;;;;;;0.93;0.73;;;;;;;;;;5051142;28;20431;-71
2021/03/06 00:12:03;;;;;;;0.70;0.50;;;;;;;;;;5051861;28;20416;-70
2021/03/06 00:14:30;;;;;;;0.70;0.50;;;;;;;;;;5051235;28;20433;-70
2021/03/06 00:16:55;;;;;;;1.43;1.33;;;;;;;;;;5052365;28;20908;-71
2021/03/06 00:19:21;;;;;;;0.70;0.50;;;;;;;;;;5051885;28;20460;-70
2021/03/06 00:21:47;;;;;;;0.70;0.50;;;;;;;;;;5051969;28;20455;-70
2021/03/06 00:24:13;;;;;;;0.70;0.50;;;;;;;;;;5051275;28;20408;-71
2021/03/06 00:26:39;;;;;;;0.80;0.70;;;;;;;;;;5052132;28;20409;-70
2021/03/06 00:29:05;;;;;;;0.70;0.60;;;;;;;;;;5051766;28;20964;-69
2021/03/06 00:31:31;;;;;;;1.80;1.70;;;;;;;;;;5067309;28;20503;-71
2021/03/06 00:33:57;;;;;;;0.70;0.60;;;;;;;;;;5054262;28;20403;-70
2021/03/06 00:36:23;;;;;;;0.80;0.60;;;;;;;;;;5052199;28;20404;-70
2021/03/06 00:38:49;;;;;;;0.70;0.60;;;;;;;;;;5051461;28;20781;-71
2021/03/06 00:41:15;;;;;;;0.70;0.50;;;;;;;;;;5052011;28;20515;-70
2021/03/06 00:43:41;;;;;;;1.10;1.00;;;;;;;;;;5050579;28;20546;-70
2021/03/06 00:46:07;;;;;;;0.83;0.63;;;;;;;;;;5051468;28;20902;-70
2021/03/06 00:48:33;;;;;;;0.70;0.50;;;;;;;;;;5051396;28;20408;-70
2021/03/06 00:50:59;;;;;;;1.33;0.70;;;;;;;;;;5051605;28;20425;-70
2021/03/06 00:53:25;;;;;;;0.70;0.50;;;;;;;;;;5050885;28;20415;-71
2021/03/06 00:55:50;;;;;;;0.73;0.57;;;;;;;;;;5051613;28;21058;-70
2021/03/06 00:58:16;;;;;;;1.00;0.50;;;;;;;;;;5051338;28;20406;-68
2021/03/06 01:00:42;;;;;;;1.13;1.03;;;;;;;;;;5051265;28;20493;-70
2021/03/06 01:03:08;;;;;;;3.17;0.93;;;;;;;;;;5050583;28;20976;-70
2021/03/06 01:05:34;;;;;;;0.70;0.50;;;;;;;;;;5051391;28;20899;-71
2021/03/06 01:08:00;;;;;;;0.73;0.57;;;;;;;;;;5051199;28;20412;-70
2021/03/06 01:10:30;;;;;;;0.90;0.70;;;;;;;;;;5050272;28;20435;-68
2021/03/06 01:12:56;;;;;;;1.00;0.60;;;;;;;;;;5050118;28;20960;-70
2021/03/06 01:15:22;;;;;;;0.70;0.50;;;;;;;;;;5051008;28;20452;-70
2021/03/06 01:17:48;;;;;;;0.70;0.50;;;;;;;;;;5050868;28;20408;-71
2021/03/06 01:20:15;;;;;;;0.70;0.50;;;;;;;;;;5050584;28;20462;-69
2021/03/06 01:22:41;;;;;;;0.80;0.70;;;;;;;;;;5050296;28;20455;-70
2021/03/06 01:25:08;;;;;;;1.03;0.80;;;;;;;;;;5050530;28;20747;-70
2021/03/06 01:27:34;;;;;;;0.70;0.50;;;;;;;;;;5050090;28;21046;-70
2021/03/06 01:30:00;;;;;;;0.70;0.50;;;;;;;;;;5053108;28;20430;-70
2021/03/06 01:32:26;;;;;;;0.70;0.50;;;;;;;;;;5066862;28;20418;-69
2021/03/06 01:34:51;;;;;;;1.30;0.80;;;;;;;;;;5049739;28;20572;-70
2021/03/06 01:37:18;;;;;;;0.70;0.50;;;;;;;;;;5050936;28;20898;-70
2021/03/06 01:39:44;;;;;;;0.90;0.60;;;;;;;;;;5050082;28;20443;-71
2021/03/06 01:42:10;;;;;;;1.30;0.80;;;;;;;;;;5050504;28;20463;-70
2021/03/06 01:44:36;;;;;;;1.27;1.17;;;;;;;;;;5049524;28;20418;-70
2021/03/06 01:47:02;;;;;;;0.70;0.60;;;;;;;;;;5050716;28;20502;-69
2021/03/06 01:49:28;;;;;;;0.70;0.50;;;;;;;;;;5049996;28;20490;-70
2021/03/06 01:51:56;;;;;;;0.70;0.50;;;;;;;;;;5050565;28;20415;-69
2021/03/06 01:54:25;;;;;;;0.70;0.50;;;;;;;;;;5050093;28;20402;-70
2021/03/06 01:56:51;;;;;;;0.80;0.73;;;;;;;;;;5050616;28;20890;-69
2021/03/06 01:59:17;;;;;;;0.70;0.50;;;;;;;;;;5050183;28;20833;-71
2021/03/06 02:01:43;;;;;;;0.70;0.50;;;;;;;;;;5050309;28;20411;-70
2021/03/06 02:04:09;;;;;;;0.70;0.50;;;;;;;;;;5049586;28;20841;-69
2021/03/06 02:06:35;;;;;;;0.70;0.50;;;;;;;;;;5050636;28;20483;-70
2021/03/06 02:09:01;;;;;;;0.80;0.60;;;;;;;;;;5050135;28;20490;-67
2021/03/06 02:11:46;;;;;;;0.70;0.50;;;;;;;;;;5049911;28;20863;-70
2021/03/06 02:14:17;;;;;;;0.70;0.47;;;;;;;;;;5031170;28;20408;-70
2021/03/06 02:16:44;;;;;;;1.50;0.57;;;;;;;;;;5049889;28;20469;-71
2021/03/06 02:19:13;;;;;;;0.70;0.50;;;;;;;;;;5049585;28;20526;-70
2021/03/06 02:21:50;;;;;;;0.70;0.50;;;;;;;;;;5049974;28;20421;-69
2021/03/06 02:24:16;;;;;;;0.70;0.50;;;;;;;;;;5049232;28;20407;-68
2021/03/06 02:26:50;;;;;;;1.43;0.93;;;;;;;;;;5050285;28;20412;-70
2021/03/06 02:29:35;;;;;;;0.70;0.50;;;;;;;;;;5049675;28;20465;-71
2021/03/06 02:32:04;;;;;;;0.80;0.70;;;;;;;;;;5059066;28;20438;-70
2021/03/06 02:34:31;;;;;;;0.70;0.50;;;;;;;;;;5069010;28;20406;-70
2021/03/06 02:37:02;;;;;;;0.80;0.50;;;;;;;;;;5069306;28;20471;-70
2021/03/06 02:39:32;;;;;;;0.70;0.60;;;;;;;;;;5049261;28;20410;-69
2021/03/06 02:41:58;;;;;;;0.70;0.40;;;;;;;;;;5049838;28;20458;-70
2021/03/06 02:44:26;;;;;;;0.70;0.50;;;;;;;;;;5048892;28;20419;-70
2021/03/06 02:46:52;;;;;;;0.80;0.70;;;;;;;;;;5049995;28;20406;-69
2021/03/06 02:49:18;;;;;;;0.70;0.50;;;;;;;;;;5049528;28;20409;-69
2021/03/06 02:51:47;;;;;;;0.70;0.50;;;;;;;;;;5050031;28;20399;-68
2021/03/06 02:54:13;;;;;;;0.70;0.50;;;;;;;;;;5049334;28;20411;-69
2021/03/06 02:56:39;;;;;;;0.70;0.50;;;;;;;;;;5050141;28;20399;-69
2021/03/06 02:59:15;;;;;;;0.90;0.70;;;;;;;;;;5049645;28;20518;-70
2021/03/06 03:01:50;;;;;;;0.70;0.50;;;;;;;;;;5049698;28;20399;-69
2021/03/06 03:04:27;;;;;;;0.70;0.60;;;;;;;;;;5049105;28;20398;-70
2021/03/06 03:06:56;;;;;;;2.03;1.40;;;;;;;;;;5049473;28;20415;-71
2021/03/06 03:09:25;;;;;;;0.70;0.50;;;;;;;;;;5049032;28;20494;-69
2021/03/06 03:11:58;;;;;;;0.70;0.50;;;;;;;;;;5049431;28;20422;-71
2021/03/06 03:14:28;;;;;;;0.70;0.50;;;;;;;;;;5048493;28;20407;-71
2021/03/06 03:17:01;;;;;;;1.10;0.73;;;;;;;;;;5049176;28;20411;-70
2021/03/06 03:19:32;;;;;;;3.03;1.10;;;;;;;;;;5049034;28;20518;-70
2021/03/06 03:22:00;;;;;;;0.70;0.50;;;;;;;;;;5049354;28;20542;-70
2021/03/06 03:24:30;;;;;;;1.57;1.00;;;;;;;;;;5048611;28;20495;-70
2021/03/06 03:26:56;;;;;;;0.70;0.50;;;;;;;;;;5049678;28;20891;-70
2021/03/06 03:29:23;;;;;;;0.90;0.60;;;;;;;;;;5030290;28;20937;-68
2021/03/06 03:31:49;;;;;;;1.00;0.90;;;;;;;;;;5066545;28;20403;-69
2021/03/06 03:34:17;;;;;;;0.80;0.60;;;;;;;;;;5049154;28;20420;-67
2021/03/06 03:36:43;;;;;;;2.20;0.83;;;;;;;;;;5048646;28;20413;-70
2021/03/06 03:39:09;;;;;;;0.70;0.60;;;;;;;;;;5047984;28;20407;-71
2021/03/06 03:41:35;;;;;;;1.93;0.97;;;;;;;;;;5048626;28;20435;-70
2021/03/06 03:44:05;;;;;;;0.70;0.50;;;;;;;;;;5048657;28;20909;-70
2021/03/06 03:46:32;;;;;;;0.70;0.60;;;;;;;;;;5033428;28;20927;-69
2021/03/06 03:48:59;;;;;;;0.93;0.70;;;;;;;;;;5052855;28;20939;-70
2021/03/06 03:51:24;;;;;;;0.70;0.60;;;;;;;;;;5052228;28;20433;-71
2021/03/06 03:53:50;;;;;;;1.83;0.80;;;;;;;;;;5052240;28;20458;-70
2021/03/06 03:56:17;;;;;;;0.70;0.50;;;;;;;;;;5052501;28;20404;-70
2021/03/06 03:58:46;;;;;;;0.70;0.50;;;;;;;;;;5052617;28;20415;-70
2021/03/06 04:01:11;;;;;;;0.70;0.50;;;;;;;;;;5051998;28;20439;-70
2021/03/06 04:03:37;;;;;;;0.70;0.50;;;;;;;;;;5051480;28;20464;-68
2021/03/06 04:06:03;;;;;;;0.80;0.80;;;;;;;;;;5052659;28;20479;-69
2021/03/06 04:08:29;;;;;;;1.10;1.00;;;;;;;;;;5051974;28;20435;-70
2021/03/06 04:10:55;;;;;;;0.70;0.50;;;;;;;;;;5051855;28;20480;-69
2021/03/06 04:13:21;;;;;;;0.90;0.77;;;;;;;;;;5051613;28;20413;-71
2021/03/06 04:15:47;;;;;;;0.70;0.50;;;;;;;;;;5052231;28;20437;-71
2021/03/06 04:18:13;;;;;;;0.70;0.50;;;;;;;;;;5051921;28;20759;-71
2021/03/06 04:20:39;;;;;;;1.10;1.00;;;;;;;;;;5068778;22;20542;-70
2021/03/06 04:23:05;;;;;;;0.70;0.50;;;;;;;;;;5059054;28;20461;-69
2021/03/06 04:25:31;;;;;;;1.10;1.00;;;;;;;;;;5064907;28;20408;-69
2021/03/06 04:27:57;;;;;;;0.70;0.50;;;;;;;;;;5071541;28;20399;-69
2021/03/06 04:30:24;;;;;;;0.70;0.50;;;;;;;;;;5068186;28;20951;-69
2021/03/06 04:32:50;;;;;;;0.70;0.60;;;;;;;;;;5071963;28;20406;-70
2021/03/06 04:35:16;;;;;;;0.70;0.50;;;;;;;;;;5064129;28;20403;-69
2021/03/06 04:37:42;;;;;;;0.70;0.50;;;;;;;;;;5053871;28;20414;-69
2021/03/06 04:40:09;;;;;;;1.27;0.90;;;;;;;;;;5071318;28;20464;-70
2021/03/06 04:42:36;;;;;;;0.70;0.50;;;;;;;;;;5069931;28;20477;-69
2021/03/06 04:45:02;;;;;;;1.43;0.70;;;;;;;;;;5051572;28;20404;-69
2021/03/06 04:47:28;;;;;;;1.27;1.00;;;;;;;;;;5052182;28;20404;-68
2021/03/06 04:49:54;;;;;;;0.70;0.50;;;;;;;;;;5053110;28;20417;-69
2021/03/06 04:52:19;;;;;;;0.77;0.57;;;;;;;;;;5068288;28;20469;-69
2021/03/06 04:54:45;;;;;;;0.70;0.50;;;;;;;;;;5062038;28;20411;-69
2021/03/06 04:57:12;;;;;;;1.00;0.70;;;;;;;;;;5063834;28;20410;-69
2021/03/06 04:59:39;;;;;;;0.70;0.50;;;;;;;;;;5061879;28;20411;-69
2021/03/06 05:02:05;;;;;;;0.70;0.50;;;;;;;;;;5063075;28;20449;-69
2021/03/06 05:04:31;;;;;;;0.70;0.50;;;;;;;;;;5064757;28;20415;-69
2021/03/06 05:06:57;;;;;;;0.77;0.57;;;;;;;;;;5062819;28;20449;-69
2021/03/06 05:09:22;;;;;;;0.70;0.50;;;;;;;;;;5064575;28;20440;-69
2021/03/06 05:11:48;;;;;;;1.87;0.60;;;;;;;;;;5062662;28;20461;-70
2021/03/06 05:14:14;;;;;;;1.20;1.10;;;;;;;;;;5062347;28;20757;-68
2021/03/06 05:16:40;;;;;;;0.80;0.70;;;;;;;;;;5061587;28;20500;-68
2021/03/06 05:19:06;;;;;;;0.70;0.50;;;;;;;;;;5064536;28;20441;-69
2021/03/06 05:21:32;;;;;;;0.70;0.53;;;;;;;;;;5062912;28;20458;-69
2021/03/06 05:23:58;;;;;;;1.27;1.20;;;;;;;;;;5064121;28;20612;-69
2021/03/06 05:26:24;;;;;;;1.43;0.70;;;;;;;;;;5063576;28;20415;-69
2021/03/06 05:28:50;;;;;;;1.20;0.90;;;;;;;;;;5059225;28;20434;-69
2021/03/06 05:31:16;;;;;;;0.70;0.50;;;;;;;;;;5070620;28;20446;-68
2021/03/06 05:33:42;;;;;;;1.03;0.90;;;;;;;;;;5082801;28;20397;-69
2021/03/06 05:36:08;;;;;;;0.70;0.60;;;;;;;;;;5071295;28;20409;-69
2021/03/06 05:38:34;;;;;;;0.70;0.50;;;;;;;;;;5069124;28;20461;-68
2021/03/06 05:41:00;;;;;;;0.80;0.70;;;;;;;;;;5051150;28;20978;-69
2021/03/06 05:43:26;;;;;;;0.70;0.50;;;;;;;;;;5051047;28;20456;-69
2021/03/06 05:45:51;;;;;;;0.80;0.73;;;;;;;;;;5064967;28;20418;-69
2021/03/06 05:48:18;;;;;;;0.70;0.57;;;;;;;;;;5065951;28;20457;-69
2021/03/06 05:50:44;;;;;;;1.10;0.90;;;;;;;;;;5060779;28;20490;-69
2021/03/06 05:53:11;;;;;;;1.00;0.87;;;;;;;;;;5066684;28;20409;-68
2021/03/06 05:55:38;;;;;;;0.70;0.60;;;;;;;;;;5061285;28;20418;-69
2021/03/06 05:58:05;;;;;;;1.37;1.27;;;;;;;;;;5063909;28;20410;-68
2021/03/06 06:00:31;;;;;;;0.70;0.60;;;;;;;;;;5052645;28;20462;-70
2021/03/06 06:02:58;;;;;;;0.70;0.60;;;;;;;;;;5060588;28;20962;-69
2021/03/06 06:05:24;;;;;;;0.70;0.60;;;;;;;;;;5062997;28;20407;-69
2021/03/06 06:07:56;;;;;;;0.80;0.80;;;;;;;;;;5059160;28;20812;-69
2021/03/06 06:10:23;;;;;;;0.70;0.50;;;;;;;;;;5059883;28;20431;-70
2021/03/06 06:12:49;;;;;;;0.70;0.50;;;;;;;;;;5060916;28;21035;-69
2021/03/06 06:15:16;;;;;;;0.80;0.60;;;;;;;;;;5059718;28;20509;-69
2021/03/06 06:17:42;;;;;;;0.97;0.97;;;;;;;;;;5067560;28;20422;-69
2021/03/06 06:20:08;;;;;;;5.07;1.60;;;;;;;;;;5056249;28;20475;-70
2021/03/06 06:22:34;;;;;;;0.80;0.60;;;;;;;;;;5067732;28;20503;-70
2021/03/06 06:25:00;;;;;;;1.13;1.03;;;;;;;;;;5063957;28;20429;-71
2021/03/06 06:27:27;;;;;;;1.20;0.80;;;;;;;;;;5044408;28;20420;-69
2021/03/06 06:29:55;;;;;;;1.30;1.20;;;;;;;;;;5065719;28;20415;-68
2021/03/06 06:32:22;;;;;;;1.10;0.60;;;;;;;;;;5058764;28;21546;-69
2021/03/06 06:34:59;;;;;;;1.23;1.13;;;;;;;;;;5064216;28;20437;-70
2021/03/06 06:37:25;;;;;;;0.70;0.50;;;;;;;;;;5065004;28;20448;-69
2021/03/06 06:39:51;;;;;;;0.83;0.60;;;;;;;;;;5069749;28;20417;-69
2021/03/06 06:42:17;;;;;;;0.80;0.60;;;;;;;;;;5053779;28;20508;-69
2021/03/06 06:44:56;;;;;;;1.23;0.60;;;;;;;;;;5040544;28;20412;-69
2021/03/06 06:47:23;;;;;;;0.70;0.60;;;;;;;;;;5049697;28;20421;-69
2021/03/06 06:49:51;;;;;;;1.00;0.80;;;;;;;;;;5066718;28;20410;-68
2021/03/06 06:52:17;;;;;;;0.70;0.60;;;;;;;;;;5068301;28;20454;-69
2021/03/06 06:54:57;;;;;;;0.70;0.50;;;;;;;;;;5065238;28;20422;-70
2021/03/06 06:57:24;;;;;;;0.70;0.50;;;;;;;;;;5064326;28;20407;-69
2021/03/06 06:59:57;;;;;;;0.70;0.50;;;;;;;;;;5068688;28;20490;-70
2021/03/06 07:02:24;;;;;;;0.70;0.57;;;;;;;;;;5066496;28;20452;-68
2021/03/06 07:04:51;;;;;;;0.80;0.60;;;;;;;;;;5067750;28;20407;-70
2021/03/06 07:07:19;;;;;;;1.10;1.03;;;;;;;;;;5063913;28;20936;-70
2021/03/06 07:10:03;;;;;;;0.70;0.60;;;;;;;;;;5066259;28;20397;-70
2021/03/06 07:12:30;;;;;;;0.70;0.53;;;;;;;;;;5067466;28;20406;-70
2021/03/06 07:14:56;;;;;;;0.70;0.50;;;;;;;;;;5065802;28;20467;-69
2021/03/06 07:17:22;;;;;;;0.70;0.50;;;;;;;;;;5068492;28;20404;-68
2021/03/06 07:19:48;;;;;;;0.70;0.50;;;;;;;;;;5069812;28;20403;-70
2021/03/06 07:22:15;;;;;;;0.90;0.90;;;;;;;;;;5072706;28;20462;-70
2021/03/06 07:24:41;;;;;;;0.80;0.70;;;;;;;;;;5072234;28;20790;-69
2021/03/06 07:27:07;;;;;;;1.03;0.70;;;;;;;;;;5071708;28;20411;-69
2021/03/06 07:29:33;;;;;;;0.80;0.60;;;;;;;;;;5067846;28;20412;-70
2021/03/06 07:32:00;;;;;;;0.80;0.60;;;;;;;;;;5061300;28;20448;-70
2021/03/06 07:34:27;;;;;;;1.10;0.63;;;;;;;;;;5068760;28;20797;-70
2021/03/06 07:37:06;;;;;;;1.10;1.00;;;;;;;;;;5050682;28;20496;-69
2021/03/06 07:39:39;;;;;;;1.37;0.90;;;;;;;;;;5073004;28;20483;-69
2021/03/06 07:42:10;;;;;;;1.03;0.93;;;;;;;;;;5072059;28;20555;-69
2021/03/06 07:44:38;;;;;;;1.63;1.17;;;;;;;;;;5062798;28;20444;-69
2021/03/06 07:47:05;;;;;;;0.73;0.60;;;;;;;;;;5071064;28;20411;-69
2021/03/06 07:49:32;;;;;;;2.80;1.10;;;;;;;;;;5064164;28;20411;-69
2021/03/06 07:52:01;;;;;;;1.87;0.83;;;;;;;;;;5072207;28;20428;-69
2021/03/06 07:54:27;;;;;;;3.37;0.97;;;;;;;;;;5062091;28;20454;-69
2021/03/06 07:56:53;;;;;;;1.30;1.20;;;;;;;;;;5062707;28;20739;-71
2021/03/06 07:59:39;;;;;;;1.43;0.90;;;;;;;;;;5070740;28;20771;-69
2021/03/06 08:02:23;;;;;;;0.70;0.50;;;;;;;;;;5072485;28;20523;-68
2021/03/06 08:04:49;;;;;;;3.57;1.43;;;;;;;;;;5066241;28;20418;-70
2021/03/06 08:07:15;;;;;;;0.83;0.80;;;;;;;;;;5069844;28;20783;-70
2021/03/06 08:10:00;;;;;;;1.00;0.90;;;;;;;;;;5070992;28;20438;-70
2021/03/06 08:12:35;;;;;;;0.70;0.50;;;;;;;;;;5072096;28;20943;-70
2021/03/06 08:15:20;;;;;;;1.50;0.83;;;;;;;;;;5066043;28;20412;-69
2021/03/06 08:17:46;;;;;;;0.70;0.53;;;;;;;;;;5067487;28;20410;-69
2021/03/06 08:20:22;;;;;;;0.80;0.60;;;;;;;;;;5066329;28;20550;-69
2021/03/06 08:23:08;;;;;;;0.70;0.50;;;;;;;;;;5060473;28;20788;-70
2021/03/06 08:25:34;;;;;;;0.70;0.60;;;;;;;;;;5059271;28;20523;-69
2021/03/06 08:28:18;;;;;;;0.90;0.77;;;;;;;;;;5060926;28;20491;-70
2021/03/06 08:30:44;;;;;;;0.70;0.50;;;;;;;;;;5067558;28;20950;-69
2021/03/06 08:33:14;;;;;;;0.80;0.80;;;;;;;;;;5055064;28;20400;-70
2021/03/06 08:35:40;;;;;;;0.70;0.50;;;;;;;;;;5065567;28;20420;-69
2021/03/06 08:38:25;;;;;;;1.20;0.80;;;;;;;;;;5070007;28;20855;-69
2021/03/06 08:40:53;;;;;;;0.70;0.60;;;;;;;;;;5071818;28;20430;-69
2021/03/06 08:43:19;;;;;;;0.77;0.67;;;;;;;;;;5071696;28;20818;-69
2021/03/06 08:45:45;;;;;;;0.80;0.60;;;;;;;;;;5066083;28;20414;-71
2021/03/06 08:48:11;;;;;;;0.73;0.50;;;;;;;;;;5068609;28;20416;-69
2021/03/06 08:50:36;;;;;;;5.03;0.90;;;;;;;;;;5045452;28;20497;-69
2021/03/06 08:53:03;;;;;;;0.70;0.50;;;;;;;;;;5068207;28;20425;-69
2021/03/06 08:55:31;;;;;;;0.80;0.60;;;;;;;;;;5065908;28;20494;-69
2021/03/06 08:58:04;;;;;;;0.80;0.70;;;;;;;;;;5059865;28;20413;-69
2021/03/06 09:00:33;;;;;;;3.37;1.60;;;;;;;;;;5054914;28;20976;-68
2021/03/06 09:03:08;;;;;;;0.70;0.50;;;;;;;;;;5067126;28;20571;-69
2021/03/06 09:05:34;;;;;;;0.80;0.50;;;;;;;;;;5076210;28;20418;-69
2021/03/06 09:08:00;;;;;;;0.80;0.70;;;;;;;;;;5066455;28;20421;-70
2021/03/06 09:10:28;;;;;;;1.27;1.17;;;;;;;;;;5062086;28;21209;-55
2021/03/06 09:12:55;;;;;;;1.97;0.80;;;;;;;;;;5066315;28;20407;-57
2021/03/06 09:15:25;;;;;;;0.73;0.53;;;;;;;;;;5051852;28;20794;-55
2021/03/06 09:17:51;;;;;;;1.03;0.90;;;;;;;;;;5060665;28;20395;-55
2021/03/06 09:20:17;;;;;;;0.90;0.70;;;;;;;;;;5063188;28;20407;-56
2021/03/06 09:22:45;;;;;;;0.70;0.50;;;;;;;;;;5063146;28;20444;-58
2021/03/06 09:25:11;;;;;;;0.90;0.90;;;;;;;;;;5068176;28;20426;-59
2021/03/06 09:27:44;;;;;;;0.70;0.60;;;;;;;;;;5061503;28;20569;-59
2021/03/06 09:30:25;;;;;;;0.70;0.43;;;;;;;;;;5069389;28;20431;-59
2021/03/06 09:32:51;;;;;;;0.70;0.50;;;;;;;;;;5061692;28;20409;-60
2021/03/06 09:35:17;;;;;;;0.70;0.50;;;;;;;;;;5059223;28;20412;-60
2021/03/06 09:37:44;;;;;;;1.77;0.67;;;;;;;;;;5072470;28;20493;-70
2021/03/06 09:40:20;;;;;;;0.80;0.70;;;;;;;;;;5053087;28;20422;-70
2021/03/06 09:42:48;;;;;;;0.70;0.50;;;;;;;;;;5057744;28;20469;-70
2021/03/06 09:45:15;;;;;;;0.70;0.50;;;;;;;;;;5059325;28;20417;-69
2021/03/06 09:47:41;;;;;;;0.80;0.50;;;;;;;;;;5033172;28;20418;-70
2021/03/06 09:50:07;;;;;;;1.00;0.60;;;;;;;;;;5059253;28;20418;-69
2021/03/06 09:52:34;;;;;;;1.03;0.60;;;;;;;;;;5072212;28;20427;-70
2021/03/06 09:55:00;;;;;;;1.77;0.70;;;;;;;;;;5091314;28;20414;-69
2021/03/06 09:57:26;;;;;;;1.43;0.60;;;;;;;;;;5080669;28;20787;-69
2021/03/06 09:59:52;;;;;;;0.70;0.50;;;;;;;;;;5081346;28;20418;-70
2021/03/06 10:02:23;;;;;;;2.83;1.33;;;;;;;;;;5090372;28;20478;-69
2021/03/06 10:04:49;;;;;;;0.70;0.50;;;;;;;;;;5099214;28;20486;-69
2021/03/06 10:07:15;;;;;;;0.80;0.50;;;;;;;;;;5106152;28;20860;-69
2021/03/06 10:09:42;;;;;;;0.70;0.50;;;;;;;;;;5076774;28;20404;-69
2021/03/06 10:12:09;;;;;;;2.23;0.80;;;;;;;;;;5050339;28;20400;-70
2021/03/06 10:14:36;;;;;;;0.70;0.40;;;;;;;;;;5058753;28;20855;-70
2021/03/06 10:17:03;;;;;;;0.70;0.50;;;;;;;;;;5061352;28;20515;-69
2021/03/06 10:19:31;;;;;;;0.80;0.50;;;;;;;;;;5061561;28;20483;-69
2021/03/06 10:22:01;;;;;;;0.70;0.50;;;;;;;;;;5042264;22;20614;-67
2021/03/06 10:24:46;;;;;;;0.80;0.70;;;;;;;;;;5026010;28;20423;-70
2021/03/06 10:27:12;;;;;;;0.70;0.47;;;;;;;;;;5023395;28;20415;-69
2021/03/06 10:29:38;;;;;;;3.10;0.80;;;;;;;;;;5024172;28;20900;-69
2021/03/06 10:32:04;;;;;;;1.00;0.60;;;;;;;;;;5031638;28;20538;-70
2021/03/06 10:34:32;;;;;;;0.70;0.50;;;;;;;;;;5028190;28;20483;-70
2021/03/06 10:37:05;;;;;;;1.73;1.63;;;;;;;;;;5030204;28;20485;-69
2021/03/06 10:39:31;;;;;;;0.70;0.40;;;;;;;;;;5026296;28;20447;-69
2021/03/06 10:41:57;;;;;;;1.10;1.00;;;;;;;;;;5028290;28;20460;-69
2021/03/06 10:44:23;;;;;;;0.70;0.40;;;;;;;;;;5029446;28;20531;-69
2021/03/06 10:46:59;;;;;;;1.00;0.97;;;;;;;;;;5030361;28;20494;-70
2021/03/06 10:49:34;;;;;;;0.70;0.40;;;;;;;;;;5030048;28;20415;-69
2021/03/06 10:52:00;;;;;;;0.70;0.50;;;;;;;;;;5025786;28;20438;-72
2021/03/06 10:54:26;;;;;;;0.80;0.70;;;;;;;;;;5027462;28;20374;-68
2021/03/06 10:57:05;;;;;;;0.70;0.60;;;;;;;;;;5033317;28;20803;-70
2021/03/06 10:59:33;;;;;;;1.40;0.63;;;;;;;;;;5030553;28;20783;-70
2021/03/06 11:01:59;;;;;;;1.13;0.73;;;;;;;;;;5032195;28;20459;-68
2021/03/06 11:04:32;;;;;;;0.70;0.50;;;;;;;;;;5032405;28;20411;-69
2021/03/06 11:06:59;;;;;;;0.70;0.40;;;;;;;;;;5033549;28;20486;-71
2021/03/06 11:09:29;;;;;;;0.80;0.50;;;;;;;;;;5028488;28;20424;-69
2021/03/06 11:11:55;;;;;;;0.77;0.50;;;;;;;;;;5030800;28;20474;-67
2021/03/06 11:14:25;;;;;;;1.03;0.93;;;;;;;;;;5032066;28;20419;-68
2021/03/06 11:16:51;;;;;;;0.70;0.40;;;;;;;;;;5031529;28;20399;-67
2021/03/06 11:19:17;;;;;;;0.80;0.50;;;;;;;;;;5032620;28;20487;-69
2021/03/06 11:21:43;;;;;;;0.90;0.70;;;;;;;;;;5032793;28;20534;-68
2021/03/06 11:24:10;;;;;;;0.70;0.50;;;;;;;;;;5031241;28;20542;-67
2021/03/06 11:26:36;;;;;;;0.70;0.40;;;;;;;;;;5032452;28;20458;-69
2021/03/06 11:29:03;;;;;;;0.70;0.60;;;;;;;;;;5028707;28;20503;-68
2021/03/06 11:31:29;;;;;;;1.77;1.50;;;;;;;;;;5033490;28;20437;-69
2021/03/06 11:33:55;;;;;;;0.90;0.50;;;;;;;;;;5034006;28;20412;-70
2021/03/06 11:36:23;;;;;;;0.80;0.60;;;;;;;;;;5029170;28;20535;-75
2021/03/06 11:38:49;;;;;;;0.70;0.50;;;;;;;;;;5013393;28;20609;-70
2021/03/06 11:41:15;;;;;;;1.37;0.60;;;;;;;;;;5021068;28;20443;-68
2021/03/06 11:43:41;;;;;;;2.07;1.43;;;;;;;;;;5030179;28;20469;-69
2021/03/06 11:46:07;;;;;;;0.80;0.60;;;;;;;;;;5033183;28;20810;-70
2021/03/06 11:48:33;;;;;;;1.00;0.70;;;;;;;;;;5033582;28;20416;-70
2021/03/06 11:50:59;;;;;;;1.10;0.60;;;;;;;;;;5033067;28;20429;-69
2021/03/06 11:53:25;;;;;;;0.80;0.70;;;;;;;;;;5033052;28;20416;-70
2021/03/06 11:55:51;;;;;;;0.70;0.40;;;;;;;;;;5016749;28;20946;-69
2021/03/06 11:58:17;;;;;;;0.70;0.43;;;;;;;;;;5033059;28;20415;-69
2021/03/06 12:00:43;;;;;;;0.70;0.50;;;;;;;;;;5032951;28;20802;-70
2021/03/06 12:03:09;;;;;;;0.70;0.60;;;;;;;;;;5031874;28;20470;-70
2021/03/06 12:05:35;;;;;;;1.03;1.03;;;;;;;;;;5031692;28;20401;-71
2021/03/06 12:08:01;;;;;;;1.37;1.20;;;;;;;;;;5033429;28;20775;-70
2021/03/06 12:10:28;;;;;;;1.30;1.20;;;;;;;;;;5032785;28;20413;-68
2021/03/06 12:12:55;;;;;;;0.97;0.60;;;;;;;;;;5032596;28;20906;-69
2021/03/06 12:15:21;;;;;;;1.10;0.67;;;;;;;;;;5032238;28;20415;-71
2021/03/06 12:17:48;;;;;;;4.10;1.00;;;;;;;;;;5032625;28;20412;-70
2021/03/06 12:20:15;;;;;;;0.70;0.50;;;;;;;;;;5032397;28;20781;-70
2021/03/06 12:22:41;;;;;;;0.70;0.50;;;;;;;;;;5032255;28;20509;-73
2021/03/06 12:25:08;;;;;;;0.70;0.47;;;;;;;;;;5031743;28;20419;-69
2021/03/06 12:27:35;;;;;;;0.70;0.50;;;;;;;;;;5032452;28;20821;-71
2021/03/06 12:30:01;;;;;;;0.70;0.50;;;;;;;;;;5035248;28;20419;-69
2021/03/06 12:32:27;;;;;;;5.33;0.70;;;;;;;;;;5035134;28;20448;-70
2021/03/06 12:34:53;;;;;;;0.80;0.60;;;;;;;;;;5032220;28;20954;-70
2021/03/06 12:37:19;;;;;;;0.70;0.50;;;;;;;;;;5032629;28;20491;-71
2021/03/06 12:39:44;;;;;;;0.80;0.60;;;;;;;;;;5031900;28;20425;-70
2021/03/06 12:42:10;;;;;;;0.70;0.60;;;;;;;;;;5031883;28;20465;-70
2021/03/06 12:44:36;;;;;;;0.70;0.50;;;;;;;;;;5031679;28;20412;-71
2021/03/06 12:47:02;;;;;;;3.10;0.70;;;;;;;;;;5046734;28;20485;-70
2021/03/06 12:49:28;;;;;;;0.70;0.47;;;;;;;;;;5051894;28;20447;-71
2021/03/06 12:51:54;;;;;;;0.90;0.63;;;;;;;;;;5031631;28;20465;-71
2021/03/06 12:54:22;;;;;;;0.70;0.50;;;;;;;;;;5031411;28;20416;-70
2021/03/06 12:56:48;;;;;;;0.70;0.57;;;;;;;;;;5027845;28;20419;-70
2021/03/06 12:59:14;;;;;;;0.70;0.50;;;;;;;;;;5038749;28;20472;-70
2021/03/06 13:01:40;;;;;;;0.80;0.50;;;;;;;;;;5033373;28;20431;-70
2021/03/06 13:04:06;;;;;;;0.70;0.43;;;;;;;;;;5041675;28;21135;-71
2021/03/06 13:06:32;;;;;;;1.10;0.50;;;;;;;;;;5039858;28;20476;-68
2021/03/06 13:08:58;;;;;;;0.70;0.40;;;;;;;;;;5040554;28;20410;-68
2021/03/06 13:11:24;;;;;;;0.90;0.60;;;;;;;;;;5040175;28;20442;-70
2021/03/06 13:13:50;;;;;;;0.70;0.50;;;;;;;;;;5039819;28;20422;-70
2021/03/06 13:16:16;;;;;;;0.70;0.50;;;;;;;;;;5025674;28;20409;-68
2021/03/06 13:18:42;;;;;;;1.20;0.70;;;;;;;;;;5020797;28;20416;-67
2021/03/06 13:21:08;;;;;;;0.70;0.50;;;;;;;;;;5024841;28;21013;-69
2021/03/06 13:23:34;;;;;;;0.70;0.40;;;;;;;;;;5030123;28;20460;-69
2021/03/06 13:26:00;;;;;;;0.70;0.47;;;;;;;;;;5026411;28;20429;-70
2021/03/06 13:28:26;;;;;;;0.70;0.50;;;;;;;;;;5030659;28;20441;-68
2021/03/06 13:30:52;;;;;;;0.80;0.60;;;;;;;;;;5033449;28;20475;-69
2021/03/06 13:33:18;;;;;;;0.70;0.50;;;;;;;;;;5030126;28;20471;-70
2021/03/06 13:35:44;;;;;;;0.70;0.50;;;;;;;;;;5030879;28;20488;-69
2021/03/06 13:38:16;;;;;;;0.70;0.40;;;;;;;;;;5067367;27;21032;-68
2021/03/06 13:40:43;;;;;;;0.80;0.60;;;;;;;;;;5061722;28;22398;-68
2021/03/06 13:43:09;;;;;;;0.70;0.40;;;;;;;;;;5055974;28;20423;-69
2021/03/06 13:45:35;;;;;;;0.70;0.60;;;;;;;;;;5060659;28;20414;-69
2021/03/06 13:48:01;;;;;;;0.70;0.40;;;;;;;;;;5068140;28;20471;-69
2021/03/06 13:50:30;;;;;;;0.70;0.40;;;;;;;;;;5063289;28;20406;-71
2021/03/06 13:53:00;;;;;;;0.70;0.57;;;;;;;;;;5046877;28;20473;-68
2021/03/06 13:55:26;;;;;;;0.80;0.60;;;;;;;;;;5048736;28;20422;-71
2021/03/06 13:57:52;;;;;;;0.70;0.50;;;;;;;;;;5056314;28;20815;-71
2021/03/06 14:00:18;;;;;;;1.00;0.70;;;;;;;;;;5052725;28;20399;-71
2021/03/06 14:02:44;;;;;;;0.90;0.50;;;;;;;;;;5054986;28;20420;-69
2021/03/06 14:05:10;;;;;;;0.70;0.50;;;;;;;;;;5058711;28;20437;-71
2021/03/06 14:07:36;;;;;;;0.70;0.50;;;;;;;;;;5054895;28;20784;-70
2021/03/06 14:10:03;;;;;;;0.80;0.50;;;;;;;;;;5050898;28;20415;-70
2021/03/06 14:12:29;;;;;;;0.77;0.50;;;;;;;;;;5045976;28;20451;-70
2021/03/06 14:14:55;;;;;;;0.70;0.50;;;;;;;;;;5062897;28;20475;-69
2021/03/06 14:17:21;;;;;;;0.90;0.63;;;;;;;;;;5081968;28;20457;-70
2021/03/06 14:19:47;;;;;;;0.90;0.60;;;;;;;;;;5066165;28;20504;-71
2021/03/06 14:22:13;;;;;;;0.70;0.50;;;;;;;;;;5065045;28;20521;-71
2021/03/06 14:24:39;;;;;;;0.70;0.43;;;;;;;;;;5047336;28;20406;-70
2021/03/06 14:27:05;;;;;;;0.70;0.50;;;;;;;;;;5047137;28;20427;-71
2021/03/06 14:29:31;;;;;;;0.70;0.43;;;;;;;;;;5046865;28;20467;-69
2021/03/06 14:31:57;;;;;;;0.70;0.40;;;;;;;;;;5065426;28;20429;-70
2021/03/06 14:34:23;;;;;;;0.70;0.60;;;;;;;;;;5065903;28;20440;-70
2021/03/06 14:36:49;;;;;;;4.37;0.60;;;;;;;;;;5065913;28;20475;-71
2021/03/06 14:39:15;;;;;;;0.70;0.40;;;;;;;;;;5051106;28;20433;-70
2021/03/06 14:41:42;;;;;;;0.70;0.60;;;;;;;;;;5046565;28;20425;-71
2021/03/06 14:44:09;;;;;;;0.70;0.50;;;;;;;;;;5045573;28;20416;-71
2021/03/06 14:46:35;;;;;;;0.80;0.67;;;;;;;;;;5053720;28;20952;-70